Terminal Aerodrome Forecast
Issued by NWS

Home | Current Version | Previous Version | Graphics & Text | Print | Product List | Glossary On
Versions: 1 2 3 4 5 6 7 8 9 10 11 12
000
FTUS43 KICT 270500
TAFCNU
TAF
KCNU 270520Z 2706/2806 19008KT P6SM SCT110
     FM270900 VRB03KT P6SM SCT110
     FM271300 03014G19KT P6SM SCT080 BKN120
     FM272300 36010KT P6SM BKN120=

USA.gov is the U.S. government's official web portal to all federal, state and local government web resources and services.